Time;durP1;ratioP1;P1;durP2;ratioP2;P2;SDS_P1;SDS_P2;PMS_P1;PMS_P2;Temp;Humidity;BMP_temperature;BMP_pressure;BME280_temperature;BME280_humidity;BME280_pressure;Samples;Min_cycle;Max_cycle;Signal;HPM_P1;HPM_P2
2021/05/26 00:02:07;;;;;;;0.30;0.20;;;;;;;11.18;100.00;100273.44;5004518;28;20547;-51
2021/05/26 00:04:34;;;;;;;1.63;0.87;;;;;;;11.33;100.00;100264.09;5006887;28;20468;-51
2021/05/26 00:07:01;;;;;;;0.30;0.20;;;;;;;11.27;100.00;100262.53;5015936;28;20446;-51
2021/05/26 00:09:27;;;;;;;0.30;0.20;;;;;;;11.21;100.00;100265.34;5006221;28;20552;-51
2021/05/26 00:11:54;;;;;;;0.30;0.20;;;;;;;11.20;100.00;100260.97;4992894;28;20454;-51
2021/05/26 00:14:21;;;;;;;0.30;0.20;;;;;;;11.19;100.00;100260.09;5005525;28;20480;-51
2021/05/26 00:16:48;;;;;;;0.30;0.20;;;;;;;11.12;100.00;100255.91;5000589;28;20804;-51
2021/05/26 00:19:14;;;;;;;0.30;0.20;;;;;;;11.10;100.00;100251.50;4998661;28;20472;-51
2021/05/26 00:21:41;;;;;;;0.30;0.20;;;;;;;11.05;100.00;100240.16;5002914;28;20493;-50
2021/05/26 00:24:08;;;;;;;0.30;0.20;;;;;;;11.08;100.00;100232.94;5005176;28;20976;-51
2021/05/26 00:26:35;;;;;;;0.30;0.20;;;;;;;11.02;100.00;100232.28;4998388;28;20484;-51
2021/05/26 00:29:02;;;;;;;0.30;0.20;;;;;;;11.09;100.00;100239.13;5005876;28;20481;-51
2021/05/26 00:31:29;;;;;;;0.30;0.20;;;;;;;11.19;100.00;100221.97;5002135;28;20930;-51
2021/05/26 00:33:56;;;;;;;0.30;0.20;;;;;;;11.08;100.00;100224.09;4998959;28;20885;-51
2021/05/26 00:36:22;;;;;;;0.30;0.20;;;;;;;11.17;100.00;100218.50;5002016;28;20481;-51
2021/05/26 00:38:49;;;;;;;0.30;0.20;;;;;;;11.10;100.00;100220.50;5005188;28;20449;-51
2021/05/26 00:41:16;;;;;;;0.30;0.20;;;;;;;11.13;100.00;100215.06;5002185;28;20519;-52
2021/05/26 00:43:42;;;;;;;0.30;0.20;;;;;;;11.14;100.00;100213.28;4998778;28;20455;-51
2021/05/26 00:46:09;;;;;;;0.30;0.20;;;;;;;11.11;100.00;100211.59;5011617;28;20491;-51
2021/05/26 00:48:36;;;;;;;0.30;0.20;;;;;;;10.99;100.00;100209.31;4997067;28;20456;-51
2021/05/26 00:51:03;;;;;;;0.30;0.20;;;;;;;10.96;100.00;100210.28;5000968;28;20457;-51
2021/05/26 00:53:30;;;;;;;0.30;0.20;;;;;;;11.05;100.00;100211.78;5005286;28;20449;-52
2021/05/26 00:55:57;;;;;;;0.30;0.20;;;;;;;11.08;100.00;100205.47;4993078;28;20474;-51
2021/05/26 00:58:26;;;;;;;0.30;0.20;;;;;;;11.06;100.00;100200.22;5010209;28;20456;-52
2021/05/26 01:00:53;;;;;;;0.30;0.20;;;;;;;10.96;100.00;100204.06;5001180;28;20475;-52
2021/05/26 01:03:19;;;;;;;0.30;0.20;;;;;;;10.88;100.00;100193.69;5004767;28;20492;-52
2021/05/26 01:05:46;;;;;;;0.30;0.20;;;;;;;10.90;100.00;100198.97;5016064;28;20823;-51
2021/05/26 01:08:13;;;;;;;0.30;0.20;;;;;;;10.86;100.00;100190.22;5000485;28;20452;-52
2021/05/26 01:10:41;;;;;;;0.30;0.20;;;;;;;10.92;100.00;100186.47;5000464;28;20519;-51
2021/05/26 01:13:09;;;;;;;0.30;0.20;;;;;;;10.95;100.00;100192.56;4997848;28;20452;-51
2021/05/26 01:15:36;;;;;;;0.30;0.20;;;;;;;11.11;100.00;100192.97;4999902;28;20474;-51
2021/05/26 01:18:24;;;;;;;0.30;0.20;;;;;;;10.96;100.00;100190.78;5005751;28;20942;-52
2021/05/26 01:20:54;;;;;;;0.30;0.20;;;;;;;11.03;100.00;100196.78;5008720;28;20456;-51
2021/05/26 01:23:21;;;;;;;0.30;0.20;;;;;;;10.89;100.00;100195.44;5004659;28;20483;-51
2021/05/26 01:25:54;;;;;;;0.30;0.20;;;;;;;10.91;100.00;100180.28;5007815;28;20534;-51
2021/05/26 01:28:22;;;;;;;0.30;0.20;;;;;;;10.89;100.00;100184.78;5005258;28;20792;-52
2021/05/26 01:30:49;;;;;;;0.30;0.20;;;;;;;10.90;100.00;100183.88;5000665;28;20448;-51
2021/05/26 01:33:17;;;;;;;0.30;0.20;;;;;;;10.83;100.00;100186.78;5005301;28;20446;-52
2021/05/26 01:35:46;;;;;;;0.30;0.20;;;;;;;10.84;100.00;100186.75;5008588;28;20481;-51
2021/05/26 01:38:16;;;;;;;0.30;0.20;;;;;;;10.84;100.00;100186.75;5006020;28;20452;-51
2021/05/26 01:40:44;;;;;;;0.30;0.20;;;;;;;10.74;100.00;100179.97;5002153;28;20506;-52
2021/05/26 01:43:11;;;;;;;0.30;0.20;;;;;;;10.80;100.00;100170.91;5015266;28;21063;-52
2021/05/26 01:45:38;;;;;;;0.30;0.20;;;;;;;10.87;100.00;100167.16;5001875;28;20488;-51
2021/05/26 01:48:06;;;;;;;0.30;0.20;;;;;;;10.78;100.00;100163.00;5003230;28;20463;-50
2021/05/26 01:50:34;;;;;;;0.30;0.20;;;;;;;10.75;100.00;100163.09;5008018;28;20523;-52
2021/05/26 01:53:06;;;;;;;0.30;0.20;;;;;;;10.79;100.00;100159.41;5007454;28;20441;-51
2021/05/26 01:55:34;;;;;;;0.30;0.20;;;;;;;10.83;100.00;100158.41;4997235;28;20544;-51
2021/05/26 01:58:01;;;;;;;0.30;0.20;;;;;;;10.84;100.00;100153.97;5007759;28;20448;-51
2021/05/26 02:00:28;;;;;;;0.30;0.20;;;;;;;10.78;100.00;100154.13;5002166;28;20448;-52
2021/05/26 02:02:55;;;;;;;0.30;0.20;;;;;;;10.71;100.00;100149.94;5001176;28;20832;-52
2021/05/26 02:05:22;;;;;;;0.30;0.20;;;;;;;10.73;100.00;100150.78;5022371;28;20858;-51
2021/05/26 02:07:52;;;;;;;0.30;0.20;;;;;;;10.75;100.00;100148.94;5004948;28;20453;-51
2021/05/26 02:12:20;;;;;;;0.30;0.20;;;;;;;10.73;100.00;100148.97;5003357;28;20804;-51
2021/05/26 02:13:05;;;;;;;0.30;0.20;;;;;;;10.70;100.00;100149.09;5001129;28;20503;-52
2021/05/26 02:15:32;;;;;;;0.30;0.20;;;;;;;10.70;100.00;100138.44;5002927;28;20477;-51
2021/05/26 02:17:59;;;;;;;0.30;0.20;;;;;;;10.72;100.00;100141.06;5007849;28;20849;-51
2021/05/26 02:20:26;;;;;;;0.30;0.20;;;;;;;10.81;100.00;100125.66;5005738;28;20448;-51
2021/05/26 02:22:52;;;;;;;0.30;0.20;;;;;;;10.74;100.00;100134.75;5000913;28;20501;-51
2021/05/26 02:25:19;;;;;;;0.30;0.20;;;;;;;10.82;100.00;100134.50;5009352;28;20480;-51
2021/05/26 02:27:46;;;;;;;0.30;0.20;;;;;;;10.79;100.00;100130.16;5001130;28;20456;-51
2021/05/26 02:30:13;;;;;;;0.30;0.20;;;;;;;10.91;100.00;100119.13;5002485;28;20528;-51
2021/05/26 02:32:40;;;;;;;0.30;0.20;;;;;;;10.90;100.00;100111.22;5007139;28;20853;-51
2021/05/26 02:35:08;;;;;;;0.30;0.20;;;;;;;11.09;100.00;100109.66;5006081;28;20522;-51
2021/05/26 02:37:34;;;;;;;0.30;0.20;;;;;;;10.87;100.00;100101.53;5000647;28;20453;-51
2021/05/26 02:40:01;;;;;;;0.30;0.20;;;;;;;10.81;100.00;100104.38;5001579;28;20458;-51
2021/05/26 02:42:27;;;;;;;0.30;0.20;;;;;;;10.78;100.00;100103.63;5007446;28;20489;-52
2021/05/26 02:44:54;;;;;;;0.30;0.20;;;;;;;10.79;100.00;100098.25;5006426;28;20485;-52
2021/05/26 02:47:21;;;;;;;0.30;0.20;;;;;;;10.74;100.00;100094.03;5007978;28;20515;-52
2021/05/26 02:49:47;;;;;;;0.30;0.20;;;;;;;10.73;100.00;100085.19;5006624;28;20444;-51
2021/05/26 02:52:14;;;;;;;0.30;0.20;;;;;;;10.71;100.00;100087.03;4999864;28;20862;-52
2021/05/26 02:54:40;;;;;;;0.60;0.60;;;;;;;10.73;100.00;100076.34;5002205;28;20886;-52
2021/05/26 02:57:07;;;;;;;0.30;0.20;;;;;;;10.86;100.00;100085.66;5000404;28;20449;-51
2021/05/26 02:59:34;;;;;;;0.30;0.20;;;;;;;10.72;100.00;100086.09;4999532;28;20939;-52
2021/05/26 03:02:00;;;;;;;0.30;0.20;;;;;;;10.77;100.00;100075.31;5006851;28;20489;-52
2021/05/26 03:04:27;;;;;;;0.50;0.40;;;;;;;10.77;100.00;100076.16;5006564;28;20461;-51
2021/05/26 03:06:54;;;;;;;0.30;0.20;;;;;;;10.83;100.00;100083.09;5018665;28;20532;-51
2021/05/26 03:09:20;;;;;;;0.30;0.20;;;;;;;10.82;100.00;100079.53;5006784;28;20464;-52
2021/05/26 03:11:47;;;;;;;0.30;0.20;;;;;;;10.94;100.00;100080.94;4994338;28;20453;-51
2021/05/26 03:14:13;;;;;;;0.30;0.20;;;;;;;10.78;100.00;100079.69;5007295;28;20998;-52
2021/05/26 03:16:41;;;;;;;0.30;0.20;;;;;;;10.72;100.00;100075.47;5000600;28;20938;-51
2021/05/26 03:19:08;;;;;;;0.30;0.20;;;;;;;10.73;100.00;100079.00;4999378;28;20460;-51
2021/05/26 03:21:35;;;;;;;0.30;0.20;;;;;;;10.74;100.00;100075.41;5005289;28;20452;-52
2021/05/26 03:24:02;;;;;;;0.30;0.20;;;;;;;10.72;100.00;100067.50;5006442;28;20496;-51
2021/05/26 03:26:29;;;;;;;0.30;0.20;;;;;;;10.76;100.00;100066.47;5001489;28;20474;-51
2021/05/26 03:28:55;;;;;;;0.30;0.20;;;;;;;10.75;100.00;100069.16;5006184;28;20518;-52
2021/05/26 03:31:22;;;;;;;0.30;0.20;;;;;;;10.68;100.00;100072.00;5000757;28;21012;-51
2021/05/26 03:33:49;;;;;;;0.30;0.20;;;;;;;10.68;100.00;100064.03;4999246;28;20504;-52
2021/05/26 03:36:15;;;;;;;0.30;0.20;;;;;;;10.64;100.00;100058.88;5004359;28;20998;-51
2021/05/26 03:38:42;;;;;;;0.30;0.20;;;;;;;10.62;100.00;100060.72;5006290;28;20456;-51
2021/05/26 03:41:09;;;;;;;0.30;0.20;;;;;;;10.72;100.00;100061.31;5000775;28;20934;-51
2021/05/26 03:43:35;;;;;;;0.30;0.20;;;;;;;10.63;100.00;100057.16;4999546;28;20486;-51
2021/05/26 03:46:02;;;;;;;0.30;0.20;;;;;;;10.73;100.00;100047.97;5003951;28;20532;-51
2021/05/26 03:48:29;;;;;;;0.77;0.77;;;;;;;10.63;100.00;100047.38;5004437;28;20471;-51
2021/05/26 03:50:55;;;;;;;0.30;0.20;;;;;;;10.58;100.00;100048.47;5001838;28;20865;-50
2021/05/26 03:53:22;;;;;;;0.30;0.20;;;;;;;10.71;100.00;100057.78;4999410;28;20438;-51
2021/05/26 03:55:49;;;;;;;0.30;0.20;;;;;;;10.71;100.00;100048.94;5003788;28;20469;-51
2021/05/26 03:58:16;;;;;;;0.30;0.20;;;;;;;10.68;100.00;100044.56;5006288;28;20873;-51
2021/05/26 04:00:42;;;;;;;0.30;0.20;;;;;;;10.75;100.00;100058.53;5002263;28;20831;-51
2021/05/26 04:03:09;;;;;;;0.30;0.20;;;;;;;10.74;100.00;100051.50;4999717;28;20906;-51
2021/05/26 04:05:35;;;;;;;0.30;0.20;;;;;;;10.65;100.00;100053.50;5022529;28;20468;-52
2021/05/26 04:08:02;;;;;;;0.30;0.20;;;;;;;10.59;100.00;100051.06;5003321;28;20457;-51
2021/05/26 04:10:29;;;;;;;0.30;0.20;;;;;;;10.63;100.00;100049.16;5003168;28;20488;-52
2021/05/26 04:12:55;;;;;;;0.30;0.20;;;;;;;10.68;100.00;100039.25;4997433;28;20499;-52
2021/05/26 04:15:22;;;;;;;0.30;0.20;;;;;;;10.61;100.00;100037.72;5001882;28;20477;-52
2021/05/26 04:17:49;;;;;;;0.30;0.20;;;;;;;10.67;100.00;100030.41;5006558;28;20460;-51
2021/05/26 04:20:15;;;;;;;0.30;0.20;;;;;;;10.71;100.00;100022.34;5003530;28;20491;-52
2021/05/26 04:22:42;;;;;;;0.30;0.20;;;;;;;10.52;100.00;100022.94;4999675;28;20488;-52
2021/05/26 04:25:09;;;;;;;0.30;0.20;;;;;;;10.63;100.00;100022.59;5007260;28;20518;-52
2021/05/26 04:27:35;;;;;;;0.30;0.20;;;;;;;10.66;100.00;100011.84;4999610;28;20857;-52
2021/05/26 04:30:04;;;;;;;0.30;0.20;;;;;;;10.79;100.00;100013.19;5001978;28;20457;-52
2021/05/26 04:32:31;;;;;;;0.30;0.20;;;;;;;10.71;100.00;100011.72;5006121;28;20445;-53
2021/05/26 04:34:58;;;;;;;0.30;0.20;;;;;;;10.70;100.00;100002.88;5004174;28;20472;-52
2021/05/26 04:37:24;;;;;;;0.30;0.20;;;;;;;10.78;100.00;99991.97;4999301;28;20926;-53
2021/05/26 04:39:51;;;;;;;0.30;0.20;;;;;;;10.77;100.00;99993.75;5001779;28;20450;-53
2021/05/26 04:42:18;;;;;;;0.30;0.20;;;;;;;10.84;100.00;99992.63;5006336;28;20894;-53
2021/05/26 04:44:44;;;;;;;0.30;0.20;;;;;;;10.89;100.00;99989.81;5004029;28;20487;-53
2021/05/26 04:47:12;;;;;;;0.33;0.20;;;;;;;10.94;100.00;99991.38;5053542;23;20536;-50
2021/05/26 04:49:38;;;;;;;0.30;0.20;;;;;;;11.02;100.00;99987.59;5047454;28;20458;-51
2021/05/26 04:52:05;;;;;;;0.30;0.20;;;;;;;10.95;100.00;99985.13;5051246;28;20451;-51
2021/05/26 04:54:32;;;;;;;0.30;0.20;;;;;;;10.93;100.00;99984.31;5055786;28;20820;-50
2021/05/26 04:56:58;;;;;;;0.30;0.20;;;;;;;10.97;100.00;99988.63;5037723;28;20522;-50
2021/05/26 04:59:25;;;;;;;0.30;0.30;;;;;;;11.00;100.00;99992.97;5026728;28;20451;-50
2021/05/26 05:01:52;;;;;;;0.30;0.20;;;;;;;11.00;100.00;99982.34;5036170;28;20458;-50
2021/05/26 05:04:20;;;;;;;0.30;0.20;;;;;;;10.97;100.00;99982.44;5036098;28;20522;-50
2021/05/26 05:06:47;;;;;;;0.30;0.20;;;;;;;11.04;100.00;99991.94;5029425;28;21015;-51
2021/05/26 05:09:14;;;;;;;0.30;0.20;;;;;;;11.15;100.00;99984.44;5029390;28;20448;-51
2021/05/26 05:11:40;;;;;;;0.30;0.20;;;;;;;11.14;100.00;99972.06;5029526;28;20455;-51
2021/05/26 05:14:07;;;;;;;0.30;0.20;;;;;;;11.08;100.00;99980.25;5027953;28;20448;-51
2021/05/26 05:16:34;;;;;;;0.30;0.20;;;;;;;11.02;100.00;99977.81;5035859;28;20464;-51
2021/05/26 05:19:00;;;;;;;0.30;0.20;;;;;;;11.04;100.00;99970.66;5035522;28;20447;-50
2021/05/26 05:21:30;;;;;;;0.30;0.20;;;;;;;11.01;100.00;99968.09;5035724;28;20451;-50
2021/05/26 05:23:56;;;;;;;0.30;0.20;;;;;;;11.08;100.00;99969.59;5035788;28;20487;-50
2021/05/26 05:26:23;;;;;;;0.30;0.20;;;;;;;11.02;100.00;99968.97;5028429;28;20534;-50
2021/05/26 05:28:50;;;;;;;0.30;0.20;;;;;;;11.08;100.00;99966.09;5030166;28;20505;-50
2021/05/26 05:31:16;;;;;;;0.30;0.20;;;;;;;11.11;100.00;99966.00;5035836;28;20447;-51
2021/05/26 05:33:43;;;;;;;0.30;0.20;;;;;;;11.17;100.00;99963.09;5035650;28;20451;-50
2021/05/26 05:36:09;;;;;;;0.30;0.20;;;;;;;11.14;100.00;99965.88;5035270;28;20480;-50
2021/05/26 05:38:36;;;;;;;0.30;0.20;;;;;;;11.25;100.00;99958.38;5035257;28;20459;-51
2021/05/26 05:41:03;;;;;;;0.30;0.20;;;;;;;11.28;100.00;99952.94;5035539;28;20975;-50
2021/05/26 05:43:30;;;;;;;0.30;0.20;;;;;;;11.19;100.00;99954.13;5035562;28;20511;-51
2021/05/26 05:45:57;;;;;;;0.30;0.20;;;;;;;11.30;100.00;99964.41;5034244;28;20498;-50
2021/05/26 05:48:23;;;;;;;0.30;0.20;;;;;;;11.25;100.00;99958.38;5035184;28;20820;-50
2021/05/26 05:50:50;;;;;;;0.30;0.20;;;;;;;11.37;100.00;99947.25;5035118;28;20455;-50
2021/05/26 05:53:17;;;;;;;0.30;0.20;;;;;;;11.47;100.00;99959.31;5035015;28;20455;-50
2021/05/26 05:55:43;;;;;;;0.30;0.20;;;;;;;11.30;100.00;99959.06;5026424;28;20503;-51
2021/05/26 05:58:11;;;;;;;0.30;0.20;;;;;;;11.46;100.00;99959.38;5030967;28;20788;-50
2021/05/26 06:00:39;;;;;;;0.30;0.20;;;;;;;11.37;100.00;99952.59;5035116;28;20451;-50
2021/05/26 06:03:05;;;;;;;0.30;0.20;;;;;;;11.61;100.00;99956.13;5034740;28;20483;-50
2021/05/26 06:05:32;;;;;;;0.30;0.20;;;;;;;11.66;100.00;99948.84;5034819;28;20444;-50
2021/05/26 06:07:59;;;;;;;0.30;0.20;;;;;;;11.91;100.00;99951.44;5021480;28;20448;-50
2021/05/26 06:10:26;;;;;;;0.30;0.20;;;;;;;11.69;100.00;99947.84;5035127;28;20455;-50
2021/05/26 06:12:55;;;;;;;0.30;0.20;;;;;;;11.69;100.00;99962.03;5021598;28;20452;-50
2021/05/26 06:15:22;;;;;;;0.30;0.20;;;;;;;11.86;100.00;99954.28;5034951;28;20454;-50
2021/05/26 06:17:49;;;;;;;0.30;0.20;;;;;;;11.84;100.00;99948.16;5028997;28;20443;-50
2021/05/26 06:20:17;;;;;;;0.30;0.20;;;;;;;11.74;100.00;99948.53;5025202;28;20934;-51
2021/05/26 06:22:45;;;;;;;0.30;0.20;;;;;;;11.60;100.00;99946.41;5025787;28;20496;-51
2021/05/26 06:25:13;;;;;;;0.30;0.20;;;;;;;11.57;100.00;99949.19;5026238;28;20436;-51
2021/05/26 06:27:39;;;;;;;0.30;0.20;;;;;;;11.45;100.00;99947.84;5024052;28;20468;-51
2021/05/26 06:30:08;;;;;;;0.30;0.20;;;;;;;11.56;100.00;99943.00;5024910;28;20444;-52
2021/05/26 06:32:35;;;;;;;0.30;0.20;;;;;;;11.61;100.00;99936.63;5024678;28;21003;-51
2021/05/26 06:35:03;;;;;;;0.30;0.20;;;;;;;11.67;100.00;99944.38;5025971;28;20926;-51
2021/05/26 06:37:30;;;;;;;0.30;0.20;;;;;;;12.06;100.00;99940.19;5018726;28;21034;-52
2021/05/26 06:39:57;;;;;;;0.30;0.20;;;;;;;12.07;100.00;99941.06;5019708;28;20503;-51
2021/05/26 06:42:25;;;;;;;0.30;0.20;;;;;;;12.24;100.00;99937.69;5033633;28;20455;-52
2021/05/26 06:44:51;;;;;;;0.30;0.20;;;;;;;12.36;100.00;99931.88;5034533;28;20491;-49
2021/05/26 06:47:18;;;;;;;0.30;0.20;;;;;;;12.40;100.00;99937.00;5034213;28;20502;-49
2021/05/26 06:49:46;;;;;;;0.30;0.20;;;;;;;12.48;100.00;99933.16;5033224;28;20451;-49
2021/05/26 06:52:12;;;;;;;0.30;0.20;;;;;;;12.52;100.00;99932.09;5033753;28;20967;-49
2021/05/26 06:54:39;;;;;;;0.30;0.20;;;;;;;12.69;100.00;99925.09;5029415;28;20442;-50
2021/05/26 06:57:07;;;;;;;0.30;0.20;;;;;;;12.75;100.00;99921.31;5020803;28;20513;-49
2021/05/26 06:59:33;;;;;;;0.30;0.20;;;;;;;12.96;100.00;99919.47;5033885;28;20498;-49
2021/05/26 07:02:00;;;;;;;0.30;0.20;;;;;;;12.80;100.00;99913.97;5033976;28;20459;-49
2021/05/26 07:04:27;;;;;;;0.30;0.20;;;;;;;12.80;100.00;99919.28;5033721;28;20487;-49
2021/05/26 07:06:56;;;;;;;0.30;0.20;;;;;;;12.70;100.00;99916.16;5026607;28;20476;-49
2021/05/26 07:09:23;;;;;;;0.30;0.20;;;;;;;12.85;100.00;99917.28;5028031;28;20448;-48
2021/05/26 07:11:50;;;;;;;0.30;0.20;;;;;;;12.51;100.00;99917.88;5026169;28;20953;-49
2021/05/26 07:14:17;;;;;;;0.30;0.20;;;;;;;12.67;100.00;99920.75;5028325;28;20447;-49
2021/05/26 07:16:44;;;;;;;0.30;0.20;;;;;;;12.54;100.00;99928.41;5033170;28;20484;-48
2021/05/26 07:19:11;;;;;;;0.30;0.20;;;;;;;12.64;100.00;99924.44;5033159;28;20858;-48
2021/05/26 07:21:38;;;;;;;0.30;0.20;;;;;;;12.55;100.00;99926.63;5033736;28;20439;-48
2021/05/26 07:24:05;;;;;;;0.30;0.20;;;;;;;12.34;100.00;99928.41;5033496;28;20498;-48
2021/05/26 07:26:31;;;;;;;0.30;0.20;;;;;;;12.80;100.00;99921.97;5025360;28;20468;-49
2021/05/26 07:28:58;;;;;;;0.30;0.20;;;;;;;12.64;100.00;99919.09;5028680;28;20486;-49
2021/05/26 07:31:25;;;;;;;0.30;0.20;;;;;;;12.89;100.00;99921.56;5033056;28;20455;-50
2021/05/26 07:33:52;;;;;;;0.30;0.20;;;;;;;13.13;100.00;99911.59;5033125;28;20444;-49
2021/05/26 07:36:19;;;;;;;0.30;0.20;;;;;;;13.40;100.00;99905.97;5032979;28;20468;-49
2021/05/26 07:38:46;;;;;;;0.40;0.30;;;;;;;13.68;100.00;99909.06;5032972;28;20929;-49
2021/05/26 07:41:13;;;;;;;0.30;0.20;;;;;;;13.55;100.00;99903.44;5033204;28;20455;-49
2021/05/26 07:43:40;;;;;;;0.30;0.20;;;;;;;13.97;100.00;99899.66;5033144;28;20496;-49
2021/05/26 07:46:06;;;;;;;0.30;0.20;;;;;;;13.83;99.55;99907.47;5032859;28;20494;-49
2021/05/26 07:48:35;;;;;;;0.30;0.20;;;;;;;13.97;99.58;99891.63;5033080;28;20447;-49
2021/05/26 07:51:04;;;;;;;0.30;0.20;;;;;;;13.97;98.41;99912.16;5033024;28;20455;-49
2021/05/26 07:53:30;;;;;;;0.30;0.20;;;;;;;13.94;99.24;99900.66;5032737;28;20455;-49
2021/05/26 07:55:57;;;;;;;0.30;0.20;;;;;;;13.72;97.77;99902.66;5017627;28;20984;-49
2021/05/26 07:58:24;;;;;;;0.30;0.20;;;;;;;13.98;99.00;99900.50;5019594;28;20449;-49
2021/05/26 08:00:51;;;;;;;0.30;0.20;;;;;;;13.66;96.99;99897.59;5018732;28;20451;-50
2021/05/26 08:03:18;;;;;;;0.40;0.30;;;;;;;13.70;96.87;99892.97;5021807;28;20600;-49
2021/05/26 08:05:45;;;;;;;0.30;0.20;;;;;;;13.61;98.21;99891.63;5024026;28;20468;-49
2021/05/26 08:08:13;;;;;;;0.40;0.30;;;;;;;13.82;96.44;99895.06;5014210;28;20949;-49
2021/05/26 08:10:41;;;;;;;0.30;0.20;;;;;;;13.72;95.10;99889.31;5029313;28;20847;-50
2021/05/26 08:13:09;;;;;;;0.30;0.20;;;;;;;13.57;96.10;99885.56;5015613;28;20466;-48
2021/05/26 08:15:37;;;;;;;0.30;0.20;;;;;;;13.64;95.85;99883.44;5018962;28;20543;-49
2021/05/26 08:18:09;;;;;;;0.30;0.20;;;;;;;13.32;96.66;99885.84;5017253;28;20455;-49
2021/05/26 08:20:36;;;;;;;0.30;0.20;;;;;;;13.41;96.84;99881.84;5019784;28;20455;-49
2021/05/26 08:23:03;;;;;;;0.30;0.20;;;;;;;13.27;97.98;99879.81;5016721;28;20452;-48
2021/05/26 08:25:29;;;;;;;0.30;0.20;;;;;;;13.16;97.12;99884.78;5026015;28;20450;-49
2021/05/26 08:27:56;;;;;;;0.30;0.20;;;;;;;13.19;96.77;99890.00;5017839;28;20937;-48
2021/05/26 08:30:23;;;;;;;0.40;0.30;;;;;;;13.46;95.88;99890.53;5032697;28;20502;-48
2021/05/26 08:32:51;;;;;;;0.30;0.20;;;;;;;13.43;96.25;99882.69;5031986;28;20963;-48
2021/05/26 08:35:18;;;;;;;0.30;0.20;;;;;;;13.34;96.76;99883.97;5032424;28;20514;-48
2021/05/26 08:37:44;;;;;;;0.30;0.20;;;;;;;13.47;97.02;99883.38;5032109;28;20471;-48
2021/05/26 08:40:11;;;;;;;0.30;0.20;;;;;;;13.55;97.22;99883.88;5031925;28;20452;-50
2021/05/26 08:42:42;;;;;;;0.30;0.20;;;;;;;13.48;96.62;99869.97;5032267;28;20968;-48
2021/05/26 08:45:09;;;;;;;0.30;0.20;;;;;;;13.39;96.14;99875.72;5031992;28;20562;-49
2021/05/26 08:47:36;;;;;;;0.30;0.20;;;;;;;13.50;96.04;99877.91;5032044;28;20483;-48
2021/05/26 08:50:03;;;;;;;0.30;0.20;;;;;;;13.84;94.92;99874.47;5031980;28;20447;-48
2021/05/26 08:52:30;;;;;;;0.30;0.20;;;;;;;13.65;95.51;99866.47;5032123;28;20933;-48
2021/05/26 08:54:58;;;;;;;0.30;0.20;;;;;;;13.83;96.39;99868.25;5046330;28;20444;-49
2021/05/26 08:57:24;;;;;;;0.30;0.20;;;;;;;13.86;95.52;99862.78;5020336;28;20475;-49
2021/05/26 08:59:51;;;;;;;0.80;0.80;;;;;;;13.89;95.37;99862.63;5030616;28;20574;-48
2021/05/26 09:02:18;;;;;;;0.33;0.27;;;;;;;13.82;96.43;99860.31;5022682;28;20444;-49
2021/05/26 09:04:44;;;;;;;0.30;0.20;;;;;;;13.88;95.34;99855.56;5027430;28;20491;-48
2021/05/26 09:07:15;;;;;;;0.30;0.20;;;;;;;14.07;95.37;99851.97;5022365;28;20476;-48
2021/05/26 09:09:52;;;;;;;0.30;0.20;;;;;;;13.91;94.96;99855.41;5028517;28;20519;-48
2021/05/26 09:12:38;;;;;;;0.30;0.20;;;;;;;13.92;94.71;99845.56;5020918;28;20453;-48
2021/05/26 09:15:16;;;;;;;0.30;0.20;;;;;;;14.01;96.34;99852.28;5019570;28;20455;-49
2021/05/26 09:17:44;;;;;;;0.30;0.20;;;;;;;13.88;97.46;99846.69;5031587;28;20478;-48
2021/05/26 09:20:16;;;;;;;0.30;0.20;;;;;;;13.88;96.80;99836.84;5032156;28;20451;-48
2021/05/26 09:23:17;;;;;;;0.30;0.20;;;;;;;13.80;96.66;99844.38;5031320;28;20453;-49
2021/05/26 09:25:44;;;;;;;0.30;0.20;;;;;;;14.05;96.76;99840.50;5030599;28;20470;-49
2021/05/26 09:28:30;;;;;;;0.30;0.20;;;;;;;13.73;99.49;99836.75;5019891;28;20451;-49
2021/05/26 09:31:03;;;;;;;0.30;0.20;;;;;;;13.44;100.00;99841.69;5031853;28;20529;-49
2021/05/26 09:33:51;;;;;;;0.30;0.20;;;;;;;13.48;100.00;99835.25;5031769;28;20440;-49
2021/05/26 09:36:19;;;;;;;0.30;0.20;;;;;;;13.55;100.00;99842.00;5031537;28;20475;-49
2021/05/26 09:38:53;;;;;;;0.30;0.20;;;;;;;13.45;100.00;99831.88;5032286;28;20457;-48
2021/05/26 09:41:32;;;;;;;0.30;0.20;;;;;;;13.58;99.26;99833.88;5035612;28;20491;-49
2021/05/26 09:44:10;;;;;;;0.30;0.20;;;;;;;13.72;98.42;99833.22;5035373;28;20513;-49
2021/05/26 09:46:39;;;;;;;0.30;0.20;;;;;;;13.79;99.35;99823.94;5035364;28;20479;-49
2021/05/26 09:49:08;;;;;;;0.30;0.20;;;;;;;13.89;98.02;99825.22;5035542;28;20477;-49
2021/05/26 09:51:45;;;;;;;0.30;0.20;;;;;;;14.03;96.92;99819.19;5035240;28;20447;-49
2021/05/26 09:54:25;;;;;;;0.30;0.20;;;;;;;13.77;96.94;99823.16;5035135;28;20435;-49
2021/05/26 09:56:54;;;;;;;0.30;0.20;;;;;;;13.84;97.55;99821.03;5021664;28;20471;-48
2021/05/26 09:59:22;;;;;;;0.30;0.20;;;;;;;13.91;97.94;99825.16;5034966;28;20517;-49
2021/05/26 10:01:54;;;;;;;0.30;0.20;;;;;;;14.09;97.96;99818.00;5034901;28;20502;-49
2021/05/26 10:04:23;;;;;;;0.30;0.20;;;;;;;14.16;98.23;99816.75;5034809;28;20513;-49
2021/05/26 10:06:53;;;;;;;0.30;0.20;;;;;;;14.30;97.39;99813.38;5015134;28;20522;-49
2021/05/26 10:09:23;;;;;;;0.30;0.20;;;;;;;14.16;98.04;99811.41;5028961;28;20459;-49
2021/05/26 10:11:52;;;;;;;0.30;0.20;;;;;;;14.15;97.03;99815.91;5026606;28;20451;-49
2021/05/26 10:14:22;;;;;;;0.30;0.20;;;;;;;14.19;96.13;99813.94;5029900;28;20447;-51
2021/05/26 10:16:53;;;;;;;0.30;0.20;;;;;;;14.48;95.98;99807.09;5034681;28;20476;-49
2021/05/26 10:19:19;;;;;;;0.30;0.20;;;;;;;14.46;95.37;99800.97;5034859;28;20854;-49
2021/05/26 10:21:48;;;;;;;0.30;0.20;;;;;;;14.40;95.43;99811.97;5034422;28;20474;-48
2021/05/26 10:24:19;;;;;;;0.30;0.20;;;;;;;14.46;93.97;99803.66;5034272;28;21055;-49
2021/05/26 10:26:55;;;;;;;0.30;0.20;;;;;;;14.59;93.90;99801.19;5022217;28;20469;-49
2021/05/26 10:29:25;;;;;;;0.30;0.20;;;;;;;14.65;94.04;99801.72;5034467;28;20448;-48
2021/05/26 10:31:52;;;;;;;0.30;0.20;;;;;;;14.74;96.07;99795.88;5034205;28;20448;-49
2021/05/26 10:34:19;;;;;;;0.30;0.20;;;;;;;14.69;100.00;99797.09;5034338;28;20937;-49
2021/05/26 10:36:55;;;;;;;0.30;0.20;;;;;;;14.62;100.00;99791.19;5034090;28;20483;-49
2021/05/26 10:39:31;;;;;;;0.30;0.20;;;;;;;14.36;99.56;99797.88;5034450;28;20451;-49
2021/05/26 10:41:57;;;;;;;0.30;0.20;;;;;;;15.00;99.60;99797.16;5034202;28;20452;-49
2021/05/26 10:45:03;;;;;;;0.30;0.20;;;;;;;15.11;97.74;99784.06;5034350;28;20491;-49
2021/05/26 10:47:35;;;;;;;0.30;0.20;;;;;;;15.50;95.52;99790.81;5024231;22;21009;-52
2021/05/26 10:50:14;;;;;;;0.30;0.20;;;;;;;15.61;94.46;99791.06;4991994;28;20505;-53
2021/05/26 10:52:56;;;;;;;0.30;0.20;;;;;;;15.68;94.63;99789.78;4986083;28;20536;-53
2021/05/26 10:55:35;;;;;;;0.30;0.20;;;;;;;15.64;94.50;99790.91;4994443;28;20449;-54
2021/05/26 10:58:29;;;;;;;0.30;0.20;;;;;;;15.85;93.49;99783.44;4994807;28;20450;-53
2021/05/26 11:00:55;;;;;;;3.13;1.43;;;;;;;15.60;91.59;99773.25;5026298;28;20448;-52
2021/05/26 11:03:25;;;;;;;0.30;0.20;;;;;;;15.63;94.92;99777.59;4994820;28;20449;-52
2021/05/26 11:06:00;;;;;;;0.30;0.20;;;;;;;15.76;97.16;99778.63;4994856;28;20528;-53
2021/05/26 11:08:41;;;;;;;0.30;0.20;;;;;;;15.41;100.00;99773.44;4990688;28;20456;-52
2021/05/26 11:11:28;;;;;;;0.30;0.20;;;;;;;15.20;100.00;99774.63;4994530;28;20950;-53
2021/05/26 11:14:03;;;;;;;0.30;0.20;;;;;;;15.29;100.00;99771.44;4994166;28;20503;-52
2021/05/26 11:16:54;;;;;;;0.30;0.20;;;;;;;15.50;100.00;99769.38;4993853;28;20973;-52
2021/05/26 11:19:26;;;;;;;0.30;0.20;;;;;;;15.50;100.00;99752.44;4994478;28;20450;-53
2021/05/26 11:22:11;;;;;;;0.30;0.20;;;;;;;15.58;99.49;99752.84;4994364;28;20499;-53
2021/05/26 11:24:40;;;;;;;0.30;0.20;;;;;;;15.52;98.17;99763.94;4994051;28;20485;-52
2021/05/26 11:27:27;;;;;;;0.30;0.20;;;;;;;15.65;97.96;99760.50;4994715;28;20481;-52
2021/05/26 11:30:03;;;;;;;0.30;0.20;;;;;;;15.66;96.46;99761.34;4994162;28;20461;-52
2021/05/26 11:32:31;;;;;;;0.30;0.20;;;;;;;15.48;94.26;99754.31;4994064;28;20453;-52